<?xml version="1.0" encoding="UTF-8" standalone="no" ?>
<gpx xmlns="http://www.topografix.com/GPX/1/1" xmlns:xsi="http://www.w3.org/2001/XMLSchema-instance" xsi:schemaLocation="http://www.topografix.com/GPX/1/1 http://www.topografix.com/GPX/1/1/gpx.xsd" version="1.1" creator="VisuGPX - https://www.visugpx.com">
  <metadata>
    <name>Autour de Labatut</name>
    <desc><![CDATA[Une belle rando avec un tracé majoritaire en forêt, moyennement facile ]]></desc>
  </metadata>
  <trk>
    <name><![CDATA[ACTIVE LOG 001]]></name>
    <trkseg>
      <trkpt lat="43.55156" lon="-0.98418">
        <ele>38.109375</ele>
        <time>2018-08-02T07:06:52Z</time>
      </trkpt>
      <trkpt lat="43.55196" lon="-0.98432">
        <ele>39.070678710938</ele>
        <time>2018-08-02T07:07:44Z</time>
      </trkpt>
      <trkpt lat="43.55243" lon="-0.98419">
        <ele>39.55126953125</ele>
        <time>2018-08-02T07:08:24Z</time>
      </trkpt>
      <trkpt lat="43.55265" lon="-0.98376">
        <ele>39.070678710938</ele>
        <time>2018-08-02T07:09:02Z</time>
      </trkpt>
      <trkpt lat="43.55261" lon="-0.98318">
        <ele>40.032104492188</ele>
        <time>2018-08-02T07:09:43Z</time>
      </trkpt>
      <trkpt lat="43.55252" lon="-0.98253">
        <ele>40.032104492188</ele>
        <time>2018-08-02T07:10:21Z</time>
      </trkpt>
      <trkpt lat="43.55251" lon="-0.98191">
        <ele>40.032104492188</ele>
        <time>2018-08-02T07:10:59Z</time>
      </trkpt>
      <trkpt lat="43.55253" lon="-0.98131">
        <ele>40.993408203125</ele>
        <time>2018-08-02T07:11:38Z</time>
      </trkpt>
      <trkpt lat="43.55247" lon="-0.98069">
        <ele>40.993408203125</ele>
        <time>2018-08-02T07:12:19Z</time>
      </trkpt>
      <trkpt lat="43.55245" lon="-0.98004">
        <ele>41.473999023438</ele>
        <time>2018-08-02T07:12:58Z</time>
      </trkpt>
      <trkpt lat="43.55243" lon="-0.97936">
        <ele>42.916015625</ele>
        <time>2018-08-02T07:13:37Z</time>
      </trkpt>
      <trkpt lat="43.55243" lon="-0.97874">
        <ele>43.396606445312</ele>
        <time>2018-08-02T07:14:15Z</time>
      </trkpt>
      <trkpt lat="43.55237" lon="-0.97816">
        <ele>43.877319335938</ele>
        <time>2018-08-02T07:14:55Z</time>
      </trkpt>
      <trkpt lat="43.55245" lon="-0.97756">
        <ele>45.799926757812</ele>
        <time>2018-08-02T07:15:37Z</time>
      </trkpt>
      <trkpt lat="43.55291" lon="-0.97749">
        <ele>47.241821289062</ele>
        <time>2018-08-02T07:16:16Z</time>
      </trkpt>
      <trkpt lat="43.55335" lon="-0.97745">
        <ele>48.203369140625</ele>
        <time>2018-08-02T07:16:55Z</time>
      </trkpt>
      <trkpt lat="43.55372" lon="-0.97712">
        <ele>50.1259765625</ele>
        <time>2018-08-02T07:17:34Z</time>
      </trkpt>
      <trkpt lat="43.55395" lon="-0.97661">
        <ele>50.606567382812</ele>
        <time>2018-08-02T07:18:17Z</time>
      </trkpt>
      <trkpt lat="43.55431" lon="-0.97626">
        <ele>52.048583984375</ele>
        <time>2018-08-02T07:18:57Z</time>
      </trkpt>
      <trkpt lat="43.55477" lon="-0.9763">
        <ele>53.97119140625</ele>
        <time>2018-08-02T07:19:38Z</time>
      </trkpt>
      <trkpt lat="43.55521" lon="-0.9763">
        <ele>55.4130859375</ele>
        <time>2018-08-02T07:20:25Z</time>
      </trkpt>
      <trkpt lat="43.55565" lon="-0.97639">
        <ele>57.335815429688</ele>
        <time>2018-08-02T07:21:28Z</time>
      </trkpt>
      <trkpt lat="43.5561" lon="-0.97644">
        <ele>59.258422851562</ele>
        <time>2018-08-02T07:22:09Z</time>
      </trkpt>
      <trkpt lat="43.55656" lon="-0.97651">
        <ele>62.142333984375</ele>
        <time>2018-08-02T07:22:50Z</time>
      </trkpt>
      <trkpt lat="43.55696" lon="-0.97627">
        <ele>62.622924804688</ele>
        <time>2018-08-02T07:23:33Z</time>
      </trkpt>
      <trkpt lat="43.55741" lon="-0.97608">
        <ele>61.661743164062</ele>
        <time>2018-08-02T07:24:16Z</time>
      </trkpt>
      <trkpt lat="43.55753" lon="-0.97558">
        <ele>61.661743164062</ele>
        <time>2018-08-02T07:25:19Z</time>
      </trkpt>
      <trkpt lat="43.55777" lon="-0.97512">
        <ele>57.816528320312</ele>
        <time>2018-08-02T07:26:16Z</time>
      </trkpt>
      <trkpt lat="43.55828" lon="-0.97512">
        <ele>61.661743164062</ele>
        <time>2018-08-02T07:27:35Z</time>
      </trkpt>
      <trkpt lat="43.55875" lon="-0.97528">
        <ele>65.987670898438</ele>
        <time>2018-08-02T07:29:28Z</time>
      </trkpt>
      <trkpt lat="43.55898" lon="-0.97515">
        <ele>63.103637695312</ele>
        <time>2018-08-02T07:31:28Z</time>
      </trkpt>
      <trkpt lat="43.55898" lon="-0.97447">
        <ele>70.3134765625</ele>
        <time>2018-08-02T07:32:26Z</time>
      </trkpt>
      <trkpt lat="43.55919" lon="-0.97396">
        <ele>79.926635742188</ele>
        <time>2018-08-02T07:33:29Z</time>
      </trkpt>
      <trkpt lat="43.55914" lon="-0.97324">
        <ele>87.136596679688</ele>
        <time>2018-08-02T07:34:21Z</time>
      </trkpt>
      <trkpt lat="43.5592" lon="-0.97252">
        <ele>94.346557617188</ele>
        <time>2018-08-02T07:35:16Z</time>
      </trkpt>
      <trkpt lat="43.55889" lon="-0.97225">
        <ele>91.462524414062</ele>
        <time>2018-08-02T07:40:46Z</time>
      </trkpt>
      <trkpt lat="43.55823" lon="-0.97271">
        <ele>83.77197265625</ele>
        <time>2018-08-02T07:42:05Z</time>
      </trkpt>
      <trkpt lat="43.55776" lon="-0.97338">
        <ele>76.081420898438</ele>
        <time>2018-08-02T07:43:03Z</time>
      </trkpt>
      <trkpt lat="43.55731" lon="-0.97321">
        <ele>72.716918945312</ele>
        <time>2018-08-02T07:43:49Z</time>
      </trkpt>
      <trkpt lat="43.55693" lon="-0.97284">
        <ele>65.507080078125</ele>
        <time>2018-08-02T07:44:39Z</time>
      </trkpt>
      <trkpt lat="43.55646" lon="-0.9727">
        <ele>59.739135742188</ele>
        <time>2018-08-02T07:45:27Z</time>
      </trkpt>
      <trkpt lat="43.55602" lon="-0.97251">
        <ele>55.4130859375</ele>
        <time>2018-08-02T07:46:12Z</time>
      </trkpt>
      <trkpt lat="43.55558" lon="-0.97231">
        <ele>53.009765625</ele>
        <time>2018-08-02T07:46:56Z</time>
      </trkpt>
      <trkpt lat="43.55514" lon="-0.97209">
        <ele>52.048583984375</ele>
        <time>2018-08-02T07:47:40Z</time>
      </trkpt>
      <trkpt lat="43.55471" lon="-0.97187">
        <ele>51.087158203125</ele>
        <time>2018-08-02T07:48:24Z</time>
      </trkpt>
      <trkpt lat="43.55429" lon="-0.97163">
        <ele>50.1259765625</ele>
        <time>2018-08-02T07:49:09Z</time>
      </trkpt>
      <trkpt lat="43.55386" lon="-0.97143">
        <ele>49.645263671875</ele>
        <time>2018-08-02T07:49:53Z</time>
      </trkpt>
      <trkpt lat="43.55342" lon="-0.97129">
        <ele>48.683959960938</ele>
        <time>2018-08-02T07:50:37Z</time>
      </trkpt>
      <trkpt lat="43.55336" lon="-0.97103">
        <ele>48.203369140625</ele>
        <time>2018-08-02T07:52:08Z</time>
      </trkpt>
      <trkpt lat="43.55372" lon="-0.97063">
        <ele>48.683959960938</ele>
        <time>2018-08-02T07:52:57Z</time>
      </trkpt>
      <trkpt lat="43.55403" lon="-0.97021">
        <ele>48.203369140625</ele>
        <time>2018-08-02T07:53:38Z</time>
      </trkpt>
      <trkpt lat="43.5543" lon="-0.96969">
        <ele>47.722534179688</ele>
        <time>2018-08-02T07:54:25Z</time>
      </trkpt>
      <trkpt lat="43.55479" lon="-0.96958">
        <ele>49.645263671875</ele>
        <time>2018-08-02T07:55:13Z</time>
      </trkpt>
      <trkpt lat="43.5554" lon="-0.96926">
        <ele>51.56787109375</ele>
        <time>2018-08-02T07:55:58Z</time>
      </trkpt>
      <trkpt lat="43.55584" lon="-0.96912">
        <ele>52.529174804688</ele>
        <time>2018-08-02T07:56:40Z</time>
      </trkpt>
      <trkpt lat="43.55628" lon="-0.9691">
        <ele>54.451782226562</ele>
        <time>2018-08-02T07:57:25Z</time>
      </trkpt>
      <trkpt lat="43.55681" lon="-0.96914">
        <ele>57.335815429688</ele>
        <time>2018-08-02T07:58:10Z</time>
      </trkpt>
      <trkpt lat="43.55699" lon="-0.96876">
        <ele>58.777709960938</ele>
        <time>2018-08-02T07:59:52Z</time>
      </trkpt>
      <trkpt lat="43.5569" lon="-0.96817">
        <ele>57.816528320312</ele>
        <time>2018-08-02T08:00:41Z</time>
      </trkpt>
      <trkpt lat="43.55707" lon="-0.96753">
        <ele>57.816528320312</ele>
        <time>2018-08-02T08:01:28Z</time>
      </trkpt>
      <trkpt lat="43.5573" lon="-0.96716">
        <ele>57.335815429688</ele>
        <time>2018-08-02T08:02:08Z</time>
      </trkpt>
      <trkpt lat="43.55768" lon="-0.96711">
        <ele>57.816528320312</ele>
        <time>2018-08-02T08:02:50Z</time>
      </trkpt>
      <trkpt lat="43.55778" lon="-0.96647">
        <ele>60.2197265625</ele>
        <time>2018-08-02T08:03:37Z</time>
      </trkpt>
      <trkpt lat="43.55786" lon="-0.96586">
        <ele>59.258422851562</ele>
        <time>2018-08-02T08:04:15Z</time>
      </trkpt>
      <trkpt lat="43.55809" lon="-0.96545">
        <ele>58.777709960938</ele>
        <time>2018-08-02T08:04:56Z</time>
      </trkpt>
      <trkpt lat="43.5585" lon="-0.96521">
        <ele>59.258422851562</ele>
        <time>2018-08-02T08:05:37Z</time>
      </trkpt>
      <trkpt lat="43.55855" lon="-0.96455">
        <ele>59.258422851562</ele>
        <time>2018-08-02T08:06:19Z</time>
      </trkpt>
      <trkpt lat="43.55857" lon="-0.964">
        <ele>58.777709960938</ele>
        <time>2018-08-02T08:07:29Z</time>
      </trkpt>
      <trkpt lat="43.55916" lon="-0.96368">
        <ele>59.739135742188</ele>
        <time>2018-08-02T08:08:43Z</time>
      </trkpt>
      <trkpt lat="43.55961" lon="-0.96326">
        <ele>64.545654296875</ele>
        <time>2018-08-02T08:10:28Z</time>
      </trkpt>
      <trkpt lat="43.55979" lon="-0.96274">
        <ele>65.987670898438</ele>
        <time>2018-08-02T08:11:19Z</time>
      </trkpt>
      <trkpt lat="43.55998" lon="-0.96223">
        <ele>66.948974609375</ele>
        <time>2018-08-02T08:12:11Z</time>
      </trkpt>
      <trkpt lat="43.56013" lon="-0.9616">
        <ele>71.755493164062</ele>
        <time>2018-08-02T08:13:25Z</time>
      </trkpt>
      <trkpt lat="43.5604" lon="-0.96102">
        <ele>78.965454101562</ele>
        <time>2018-08-02T08:14:24Z</time>
      </trkpt>
      <trkpt lat="43.56055" lon="-0.96043">
        <ele>84.252685546875</ele>
        <time>2018-08-02T08:15:14Z</time>
      </trkpt>
      <trkpt lat="43.56086" lon="-0.95998">
        <ele>89.059326171875</ele>
        <time>2018-08-02T08:15:56Z</time>
      </trkpt>
      <trkpt lat="43.56099" lon="-0.95937">
        <ele>95.788452148438</ele>
        <time>2018-08-02T08:16:42Z</time>
      </trkpt>
      <trkpt lat="43.56096" lon="-0.95939">
        <ele>94.346557617188</ele>
        <time>2018-08-02T08:18:38Z</time>
      </trkpt>
      <trkpt lat="43.56104" lon="-0.9596">
        <ele>90.98193359375</ele>
        <time>2018-08-02T08:20:21Z</time>
      </trkpt>
      <trkpt lat="43.56077" lon="-0.96016">
        <ele>84.7333984375</ele>
        <time>2018-08-02T08:21:31Z</time>
      </trkpt>
      <trkpt lat="43.56067" lon="-0.96049">
        <ele>82.330078125</ele>
        <time>2018-08-02T08:23:21Z</time>
      </trkpt>
      <trkpt lat="43.56033" lon="-0.96106">
        <ele>75.120239257812</ele>
        <time>2018-08-02T08:24:43Z</time>
      </trkpt>
      <trkpt lat="43.55975" lon="-0.96127">
        <ele>69.352294921875</ele>
        <time>2018-08-02T08:26:00Z</time>
      </trkpt>
      <trkpt lat="43.55917" lon="-0.96131">
        <ele>65.507080078125</ele>
        <time>2018-08-02T08:28:42Z</time>
      </trkpt>
      <trkpt lat="43.5592" lon="-0.96153">
        <ele>65.0263671875</ele>
        <time>2018-08-02T08:31:48Z</time>
      </trkpt>
      <trkpt lat="43.55895" lon="-0.96126">
        <ele>63.584350585938</ele>
        <time>2018-08-02T08:35:48Z</time>
      </trkpt>
      <trkpt lat="43.55852" lon="-0.96129">
        <ele>60.700317382812</ele>
        <time>2018-08-02T08:36:43Z</time>
      </trkpt>
      <trkpt lat="43.558" lon="-0.96148">
        <ele>57.816528320312</ele>
        <time>2018-08-02T08:45:08Z</time>
      </trkpt>
      <trkpt lat="43.55775" lon="-0.96216">
        <ele>58.297119140625</ele>
        <time>2018-08-02T08:46:08Z</time>
      </trkpt>
      <trkpt lat="43.55751" lon="-0.96272">
        <ele>58.777709960938</ele>
        <time>2018-08-02T08:46:58Z</time>
      </trkpt>
      <trkpt lat="43.55711" lon="-0.9631">
        <ele>57.816528320312</ele>
        <time>2018-08-02T08:47:52Z</time>
      </trkpt>
      <trkpt lat="43.55671" lon="-0.96327">
        <ele>57.816528320312</ele>
        <time>2018-08-02T08:48:48Z</time>
      </trkpt>
      <trkpt lat="43.55622" lon="-0.96334">
        <ele>57.335815429688</ele>
        <time>2018-08-02T08:49:49Z</time>
      </trkpt>
      <trkpt lat="43.55573" lon="-0.96317">
        <ele>55.4130859375</ele>
        <time>2018-08-02T08:50:30Z</time>
      </trkpt>
      <trkpt lat="43.55535" lon="-0.96279">
        <ele>54.451782226562</ele>
        <time>2018-08-02T08:51:16Z</time>
      </trkpt>
      <trkpt lat="43.55484" lon="-0.96264">
        <ele>54.932373046875</ele>
        <time>2018-08-02T08:52:04Z</time>
      </trkpt>
      <trkpt lat="43.55502" lon="-0.96275">
        <ele>54.932373046875</ele>
        <time>2018-08-02T08:53:18Z</time>
      </trkpt>
      <trkpt lat="43.55547" lon="-0.96298">
        <ele>54.451782226562</ele>
        <time>2018-08-02T08:54:06Z</time>
      </trkpt>
      <trkpt lat="43.55589" lon="-0.96321">
        <ele>56.855102539062</ele>
        <time>2018-08-02T08:54:48Z</time>
      </trkpt>
      <trkpt lat="43.55638" lon="-0.96334">
        <ele>58.297119140625</ele>
        <time>2018-08-02T08:55:31Z</time>
      </trkpt>
      <trkpt lat="43.55679" lon="-0.96366">
        <ele>58.777709960938</ele>
        <time>2018-08-02T08:56:17Z</time>
      </trkpt>
      <trkpt lat="43.55707" lon="-0.96439">
        <ele>59.739135742188</ele>
        <time>2018-08-02T08:57:04Z</time>
      </trkpt>
      <trkpt lat="43.5573" lon="-0.96499">
        <ele>60.2197265625</ele>
        <time>2018-08-02T08:57:47Z</time>
      </trkpt>
      <trkpt lat="43.55721" lon="-0.9657">
        <ele>59.739135742188</ele>
        <time>2018-08-02T08:59:22Z</time>
      </trkpt>
      <trkpt lat="43.55681" lon="-0.96622">
        <ele>58.777709960938</ele>
        <time>2018-08-02T09:00:12Z</time>
      </trkpt>
      <trkpt lat="43.5563" lon="-0.96637">
        <ele>58.297119140625</ele>
        <time>2018-08-02T09:01:58Z</time>
      </trkpt>
      <trkpt lat="43.55581" lon="-0.96678">
        <ele>57.335815429688</ele>
        <time>2018-08-02T09:03:03Z</time>
      </trkpt>
      <trkpt lat="43.55541" lon="-0.96742">
        <ele>56.37451171875</ele>
        <time>2018-08-02T09:04:04Z</time>
      </trkpt>
      <trkpt lat="43.55494" lon="-0.96787">
        <ele>56.37451171875</ele>
        <time>2018-08-02T09:05:38Z</time>
      </trkpt>
      <trkpt lat="43.55457" lon="-0.96841">
        <ele>55.4130859375</ele>
        <time>2018-08-02T09:07:15Z</time>
      </trkpt>
      <trkpt lat="43.55406" lon="-0.96873">
        <ele>53.490478515625</ele>
        <time>2018-08-02T09:08:18Z</time>
      </trkpt>
      <trkpt lat="43.5536" lon="-0.96887">
        <ele>51.56787109375</ele>
        <time>2018-08-02T09:10:06Z</time>
      </trkpt>
      <trkpt lat="43.55321" lon="-0.96916">
        <ele>51.56787109375</ele>
        <time>2018-08-02T09:10:56Z</time>
      </trkpt>
      <trkpt lat="43.55271" lon="-0.96913">
        <ele>51.56787109375</ele>
        <time>2018-08-02T09:11:50Z</time>
      </trkpt>
      <trkpt lat="43.55222" lon="-0.96909">
        <ele>50.606567382812</ele>
        <time>2018-08-02T09:12:39Z</time>
      </trkpt>
      <trkpt lat="43.5519" lon="-0.96854">
        <ele>53.009765625</ele>
        <time>2018-08-02T09:13:46Z</time>
      </trkpt>
      <trkpt lat="43.55139" lon="-0.96804">
        <ele>53.009765625</ele>
        <time>2018-08-02T09:14:46Z</time>
      </trkpt>
      <trkpt lat="43.55091" lon="-0.96832">
        <ele>52.529174804688</ele>
        <time>2018-08-02T09:15:43Z</time>
      </trkpt>
      <trkpt lat="43.55062" lon="-0.96871">
        <ele>52.529174804688</ele>
        <time>2018-08-02T09:17:38Z</time>
      </trkpt>
      <trkpt lat="43.55084" lon="-0.96924">
        <ele>53.009765625</ele>
        <time>2018-08-02T09:18:27Z</time>
      </trkpt>
      <trkpt lat="43.55065" lon="-0.96965">
        <ele>53.490478515625</ele>
        <time>2018-08-02T09:20:12Z</time>
      </trkpt>
      <trkpt lat="43.55027" lon="-0.96981">
        <ele>52.529174804688</ele>
        <time>2018-08-02T09:20:59Z</time>
      </trkpt>
      <trkpt lat="43.54994" lon="-0.97029">
        <ele>52.529174804688</ele>
        <time>2018-08-02T09:22:48Z</time>
      </trkpt>
      <trkpt lat="43.54955" lon="-0.97071">
        <ele>44.358032226562</ele>
        <time>2018-08-02T09:24:58Z</time>
      </trkpt>
      <trkpt lat="43.54944" lon="-0.97009">
        <ele>45.799926757812</ele>
        <time>2018-08-02T09:26:26Z</time>
      </trkpt>
      <trkpt lat="43.54951" lon="-0.96911">
        <ele>48.203369140625</ele>
        <time>2018-08-02T09:29:38Z</time>
      </trkpt>
      <trkpt lat="43.54953" lon="-0.96969">
        <ele>46.76123046875</ele>
        <time>2018-08-02T09:30:54Z</time>
      </trkpt>
      <trkpt lat="43.54951" lon="-0.97045">
        <ele>46.280639648438</ele>
        <time>2018-08-02T09:31:55Z</time>
      </trkpt>
      <trkpt lat="43.54977" lon="-0.97051">
        <ele>54.932373046875</ele>
        <time>2018-08-02T09:33:53Z</time>
      </trkpt>
      <trkpt lat="43.55018" lon="-0.96988">
        <ele>55.893798828125</ele>
        <time>2018-08-02T09:35:30Z</time>
      </trkpt>
      <trkpt lat="43.55063" lon="-0.96966">
        <ele>56.37451171875</ele>
        <time>2018-08-02T09:36:41Z</time>
      </trkpt>
      <trkpt lat="43.55103" lon="-0.96989">
        <ele>56.37451171875</ele>
        <time>2018-08-02T09:37:46Z</time>
      </trkpt>
      <trkpt lat="43.55138" lon="-0.97037">
        <ele>50.1259765625</ele>
        <time>2018-08-02T09:38:59Z</time>
      </trkpt>
      <trkpt lat="43.55125" lon="-0.97102">
        <ele>51.56787109375</ele>
        <time>2018-08-02T09:40:12Z</time>
      </trkpt>
      <trkpt lat="43.55125" lon="-0.97183">
        <ele>53.97119140625</ele>
        <time>2018-08-02T09:41:12Z</time>
      </trkpt>
      <trkpt lat="43.55147" lon="-0.97253">
        <ele>56.37451171875</ele>
        <time>2018-08-02T09:42:09Z</time>
      </trkpt>
      <trkpt lat="43.5515" lon="-0.97305">
        <ele>55.893798828125</ele>
        <time>2018-08-02T09:49:17Z</time>
      </trkpt>
      <trkpt lat="43.55161" lon="-0.97367">
        <ele>56.37451171875</ele>
        <time>2018-08-02T09:50:01Z</time>
      </trkpt>
      <trkpt lat="43.55175" lon="-0.97426">
        <ele>56.855102539062</ele>
        <time>2018-08-02T09:50:43Z</time>
      </trkpt>
      <trkpt lat="43.55194" lon="-0.97484">
        <ele>55.893798828125</ele>
        <time>2018-08-02T09:51:24Z</time>
      </trkpt>
      <trkpt lat="43.55203" lon="-0.97544">
        <ele>56.855102539062</ele>
        <time>2018-08-02T09:52:09Z</time>
      </trkpt>
      <trkpt lat="43.55213" lon="-0.97606">
        <ele>57.335815429688</ele>
        <time>2018-08-02T09:52:52Z</time>
      </trkpt>
      <trkpt lat="43.55223" lon="-0.97671">
        <ele>57.816528320312</ele>
        <time>2018-08-02T09:53:35Z</time>
      </trkpt>
      <trkpt lat="43.55232" lon="-0.97732">
        <ele>57.335815429688</ele>
        <time>2018-08-02T09:54:13Z</time>
      </trkpt>
      <trkpt lat="43.55236" lon="-0.97795">
        <ele>55.893798828125</ele>
        <time>2018-08-02T09:54:55Z</time>
      </trkpt>
      <trkpt lat="43.55245" lon="-0.97865">
        <ele>55.893798828125</ele>
        <time>2018-08-02T09:55:38Z</time>
      </trkpt>
      <trkpt lat="43.55241" lon="-0.9793">
        <ele>54.932373046875</ele>
        <time>2018-08-02T09:56:21Z</time>
      </trkpt>
      <trkpt lat="43.55243" lon="-0.97997">
        <ele>53.97119140625</ele>
        <time>2018-08-02T09:57:00Z</time>
      </trkpt>
      <trkpt lat="43.5525" lon="-0.98064">
        <ele>53.490478515625</ele>
        <time>2018-08-02T09:57:42Z</time>
      </trkpt>
      <trkpt lat="43.55248" lon="-0.98128">
        <ele>53.490478515625</ele>
        <time>2018-08-02T09:58:26Z</time>
      </trkpt>
      <trkpt lat="43.55245" lon="-0.98193">
        <ele>53.009765625</ele>
        <time>2018-08-02T09:59:09Z</time>
      </trkpt>
      <trkpt lat="43.55233" lon="-0.98249">
        <ele>53.009765625</ele>
        <time>2018-08-02T09:59:55Z</time>
      </trkpt>
      <trkpt lat="43.55191" lon="-0.98251">
        <ele>53.009765625</ele>
        <time>2018-08-02T10:00:31Z</time>
      </trkpt>
      <trkpt lat="43.55169" lon="-0.98304">
        <ele>52.529174804688</ele>
        <time>2018-08-02T10:01:10Z</time>
      </trkpt>
      <trkpt lat="43.55157" lon="-0.98364">
        <ele>51.56787109375</ele>
        <time>2018-08-02T10:02:03Z</time>
      </trkpt>
      <trkpt lat="43.55149" lon="-0.98427">
        <ele>51.087158203125</ele>
        <time>2018-08-02T10:02:52Z</time>
      </trkpt>
      <trkpt lat="43.55151" lon="-0.98425">
        <ele>51.087158203125</ele>
        <time>2018-08-02T10:04:28Z</time>
      </trkpt>
    </trkseg>
  </trk>
</gpx>